Time;durP1;ratioP1;P1;durP2;ratioP2;P2;SDS_P1;SDS_P2;PMS_P1;PMS_P2;Temp;Humidity;BMP_temperature;BMP_pressure;BME280_temperature;BME280_humidity;BME280_pressure;Samples;Min_cycle;Max_cycle;Signal;HPM_P1;HPM_P2
2021/05/11 00:01:42;;;;;;;8.15;3.13;;;13.70;99.90;;;;;;5092510;28;20031;-73
2021/05/11 00:04:08;;;;;;;6.55;2.83;;;13.70;99.90;;;;;;5092515;28;20388;-73
2021/05/11 00:06:34;;;;;;;10.98;3.20;;;13.70;99.90;;;;;;5091441;28;20032;-73
2021/05/11 00:08:59;;;;;;;13.05;4.82;;;13.70;99.90;;;;;;5092383;28;20532;-73
2021/05/11 00:11:25;;;;;;;7.25;3.08;;;13.70;99.90;;;;;;5091510;28;20028;-73
2021/05/11 00:13:51;;;;;;;10.45;3.72;;;13.70;99.90;;;;;;5088029;28;20020;-73
2021/05/11 00:16:17;;;;;;;4.97;2.85;;;13.80;99.90;;;;;;5081816;28;20119;-73
2021/05/11 00:18:42;;;;;;;12.30;3.70;;;13.60;99.90;;;;;;5091438;28;20108;-72
2021/05/11 00:21:08;;;;;;;10.05;3.67;;;13.60;99.90;;;;;;5092246;28;20497;-73
2021/05/11 00:23:34;;;;;;;7.90;3.90;;;13.60;99.90;;;;;;5091633;28;20476;-73
2021/05/11 00:25:59;;;;;;;12.90;4.38;;;13.60;99.90;;;;;;5091862;28;20114;-74
2021/05/11 00:28:25;;;;;;;11.93;3.85;;;13.60;99.90;;;;;;5091967;28;20491;-74
2021/05/11 00:30:51;;;;;;;6.38;3.35;;;13.60;99.90;;;;;;5092261;28;20329;-74
2021/05/11 00:33:17;;;;;;;10.65;4.80;;;13.50;99.90;;;;;;5091752;28;20024;-75
2021/05/11 00:35:42;;;;;;;9.32;3.90;;;13.60;99.90;;;;;;5080624;28;20038;-74
2021/05/11 00:38:08;;;;;;;11.70;4.07;;;13.60;99.90;;;;;;5090366;28;20111;-73
2021/05/11 00:40:34;;;;;;;7.75;4.03;;;13.60;99.90;;;;;;5091377;28;20169;-73
2021/05/11 00:42:59;;;;;;;8.63;3.70;;;13.50;99.90;;;;;;5092647;28;20032;-73
2021/05/11 00:45:25;;;;;;;10.98;3.80;;;13.60;99.90;;;;;;5092069;28;20440;-74
2021/05/11 00:47:50;;;;;;;8.63;3.70;;;13.50;99.90;;;;;;5091602;28;20036;-74
2021/05/11 00:50:16;;;;;;;7.95;4.05;;;13.50;99.90;;;;;;5085620;28;20452;-73
2021/05/11 00:52:42;;;;;;;10.70;4.53;;;13.50;99.90;;;;;;5083733;28;20055;-74
2021/05/11 00:55:10;;;;;;;8.20;3.38;;;13.50;99.90;;;;;;5091107;28;20468;-73
2021/05/11 00:57:36;;;;;;;12.63;3.42;;;13.40;99.90;;;;;;5092852;28;20036;-73
2021/05/11 01:00:09;;;;;;;10.30;3.90;;;13.50;99.90;;;;;;5092299;28;20097;-73
2021/05/11 01:02:35;;;;;;;6.68;4.05;;;13.50;99.90;;;;;;5090686;28;20035;-74
2021/05/11 01:05:01;;;;;;;8.90;3.88;;;13.40;99.90;;;;;;5091476;28;20031;-74
2021/05/11 01:07:29;;;;;;;9.95;4.00;;;13.40;99.90;;;;;;5091374;28;20024;-74
2021/05/11 01:09:56;;;;;;;9.77;4.57;;;13.40;99.90;;;;;;5093382;28;20016;-74
2021/05/11 01:12:22;;;;;;;13.40;4.57;;;13.40;99.90;;;;;;5095608;28;20050;-74
2021/05/11 01:14:48;;;;;;;8.40;4.13;;;13.40;99.90;;;;;;5094776;28;20065;-74
2021/05/11 01:17:35;;;;;;;11.20;3.97;;;13.30;99.90;;;;;;5095252;28;20032;-74
2021/05/11 01:20:03;;;;;;;11.70;4.40;;;13.30;99.90;;;;;;5095467;28;20048;-74
2021/05/11 01:25:05;;;;;;;9.38;4.60;;;13.20;99.90;;;;;;5100255;28;20036;-75
2021/05/11 01:43:57;;;;;;;15.82;4.28;;;13.10;99.90;;;;;;5068087;28;20149;-73
2021/05/11 01:49:23;;;;;;;8.80;3.90;;;13.10;99.90;;;;;;5074344;28;20388;-72
2021/05/11 02:23:44;;;;;;;9.02;6.22;;;12.00;99.90;;;;;;5074146;28;20036;-72
2021/05/11 02:26:10;;;;;;;8.63;5.85;;;12.00;99.90;;;;;;5073536;28;20037;-74
2021/05/11 02:28:35;;;;;;;8.73;5.78;;;11.90;99.90;;;;;;5073868;28;20032;-73
2021/05/11 02:31:01;;;;;;;10.77;5.45;;;11.80;99.90;;;;;;5074761;28;20495;-73
2021/05/11 02:33:26;;;;;;;8.27;5.30;;;11.70;99.90;;;;;;5073390;28;20408;-74
2021/05/11 02:35:52;;;;;;;14.25;5.47;;;11.80;99.90;;;;;;5073924;28;20464;-74
2021/05/11 02:38:19;;;;;;;10.40;5.53;;;11.70;99.90;;;;;;5073460;28;20028;-73
2021/05/11 02:40:44;;;;;;;9.25;5.30;;;11.70;99.90;;;;;;5073094;28;20392;-73
2021/05/11 02:43:17;;;;;;;13.15;5.85;;;11.70;99.90;;;;;;5073785;28;20024;-74
2021/05/11 02:45:42;;;;;;;18.30;5.68;;;11.70;99.90;;;;;;5074221;28;20032;-73
2021/05/11 02:48:08;;;;;;;9.50;5.28;;;11.70;99.90;;;;;;5073224;28;20084;-73
2021/05/11 02:50:34;;;;;;;8.50;5.93;;;11.70;99.90;;;;;;5073521;28;20074;-73
2021/05/11 02:53:01;;;;;;;8.18;6.00;;;11.70;99.90;;;;;;5073717;28;20033;-73
2021/05/11 02:55:27;;;;;;;11.98;7.15;;;11.70;99.90;;;;;;5072827;28;20029;-73
2021/05/11 02:57:54;;;;;;;12.63;6.38;;;11.70;99.90;;;;;;5073415;28;20032;-73
2021/05/11 03:00:21;;;;;;;13.90;6.75;;;11.70;99.90;;;;;;5072928;28;20020;-73
2021/05/11 03:02:47;;;;;;;10.05;6.40;;;11.70;99.90;;;;;;5073287;28;20025;-73
2021/05/11 03:05:13;;;;;;;12.45;6.68;;;11.60;99.90;;;;;;5073280;28;20074;-73
2021/05/11 03:07:39;;;;;;;19.05;6.97;;;11.60;99.90;;;;;;5072900;28;20380;-73
2021/05/11 03:10:06;;;;;;;14.27;6.90;;;11.50;99.90;;;;;;5055155;28;20021;-73
2021/05/11 03:12:32;;;;;;;13.10;6.07;;;11.50;99.90;;;;;;5073024;28;20024;-73
2021/05/11 03:14:58;;;;;;;8.30;5.95;;;11.50;99.90;;;;;;5072454;28;20028;-73
2021/05/11 03:17:23;;;;;;;11.77;6.57;;;11.50;99.90;;;;;;5072743;28;20040;-73
2021/05/11 03:19:49;;;;;;;9.68;6.10;;;11.40;99.90;;;;;;5071826;28;20048;-72
2021/05/11 03:22:15;;;;;;;11.43;5.95;;;11.40;99.90;;;;;;5072244;28;20028;-73
2021/05/11 03:24:44;;;;;;;10.80;6.10;;;11.30;99.90;;;;;;5073321;28;20358;-73
2021/05/11 03:27:11;;;;;;;11.03;7.53;;;11.40;99.90;;;;;;5073169;28;20020;-72
2021/05/11 03:29:37;;;;;;;10.13;6.38;;;11.40;99.90;;;;;;5072473;28;20071;-73
2021/05/11 03:32:03;;;;;;;8.27;6.18;;;11.40;99.90;;;;;;5073346;28;20028;-73
2021/05/11 03:34:29;;;;;;;16.60;6.47;;;11.40;99.90;;;;;;5072685;28;20362;-74
2021/05/11 03:36:57;;;;;;;11.30;7.20;;;11.40;99.90;;;;;;5072565;28;20093;-74
2021/05/11 03:39:23;;;;;;;12.43;6.85;;;11.50;99.90;;;;;;5078315;28;20436;-73
2021/05/11 03:41:53;;;;;;;9.15;5.70;;;11.50;99.90;;;;;;5073160;28;20036;-74
2021/05/11 03:44:25;;;;;;;11.07;6.05;;;11.50;99.90;;;;;;5075539;28;20032;-74
2021/05/11 03:46:51;;;;;;;12.60;6.03;;;11.50;99.90;;;;;;5073572;28;20511;-74
2021/05/11 03:49:16;;;;;;;14.45;6.53;;;11.50;99.90;;;;;;5072017;28;20029;-74
2021/05/11 03:51:42;;;;;;;8.77;6.22;;;11.60;99.90;;;;;;5071716;28;20070;-73
2021/05/11 03:54:09;;;;;;;11.88;7.07;;;11.60;99.90;;;;;;5072338;28;20135;-73
2021/05/11 03:56:36;;;;;;;9.88;6.07;;;11.60;99.90;;;;;;5071311;28;20108;-73
2021/05/11 03:59:05;;;;;;;9.27;6.07;;;11.60;99.90;;;;;;5072520;28;20119;-74
2021/05/11 04:01:31;;;;;;;10.88;6.28;;;11.60;99.90;;;;;;5071840;28;20024;-73
2021/05/11 04:03:57;;;;;;;7.82;5.53;;;11.70;99.90;;;;;;5071626;28;20078;-74
2021/05/11 04:06:23;;;;;;;14.73;6.93;;;11.70;99.90;;;;;;5071726;28;20028;-74
2021/05/11 04:16:17;;;;;;;13.52;7.28;;;11.70;99.90;;;;;;5072426;28;20084;-74
2021/05/11 04:18:43;;;;;;;9.27;5.68;;;11.70;99.90;;;;;;5071296;28;20186;-74
2021/05/11 04:21:09;;;;;;;13.07;7.47;;;11.70;99.90;;;;;;5072123;28;20032;-74
2021/05/11 04:23:35;;;;;;;16.77;7.25;;;11.70;99.90;;;;;;5071947;28;20464;-74
2021/05/11 04:26:00;;;;;;;10.93;6.47;;;11.70;99.90;;;;;;5071702;28;20021;-74
2021/05/11 04:28:27;;;;;;;11.65;6.47;;;11.70;99.90;;;;;;5071681;28;20441;-74
2021/05/11 04:30:52;;;;;;;12.32;6.45;;;11.70;99.90;;;;;;5071926;28;20020;-73
2021/05/11 04:33:18;;;;;;;10.73;6.32;;;11.70;99.90;;;;;;5070870;28;20028;-74
2021/05/11 04:35:43;;;;;;;11.23;6.43;;;11.70;99.90;;;;;;5071702;28;20188;-74
2021/05/11 04:38:09;;;;;;;10.50;6.65;;;11.70;99.90;;;;;;5071687;28;20139;-74
2021/05/11 04:40:35;;;;;;;14.88;7.93;;;11.70;99.90;;;;;;5070992;28;20103;-74
2021/05/11 04:43:00;;;;;;;14.75;7.28;;;11.60;99.90;;;;;;5071607;28;20029;-74
2021/05/11 04:45:27;;;;;;;11.43;6.25;;;11.60;99.90;;;;;;5070863;28;20063;-74
2021/05/11 04:47:55;;;;;;;9.23;5.93;;;11.60;99.90;;;;;;5071019;28;20035;-73
2021/05/11 04:50:23;;;;;;;13.70;6.88;;;11.70;99.90;;;;;;5071465;28;20027;-74
2021/05/11 04:52:49;;;;;;;16.23;6.80;;;11.80;99.90;;;;;;5071115;28;20025;-74
2021/05/11 04:55:16;;;;;;;13.75;7.13;;;11.80;99.90;;;;;;5071678;28;20028;-74
2021/05/11 04:57:41;;;;;;;15.75;7.53;;;11.90;99.90;;;;;;5072206;28;20036;-74
2021/05/11 05:00:09;;;;;;;10.30;6.68;;;11.90;99.90;;;;;;5071597;28;20024;-74
2021/05/11 05:02:37;;;;;;;20.10;7.00;;;11.90;99.90;;;;;;5072044;28;20035;-74
2021/05/11 05:05:03;;;;;;;10.52;6.60;;;12.00;99.90;;;;;;5072332;28;20029;-74
2021/05/11 05:07:28;;;;;;;13.27;6.47;;;12.10;99.90;;;;;;5072553;28;20021;-74
2021/05/11 05:09:54;;;;;;;11.50;6.20;;;12.10;99.90;;;;;;5072220;28;20027;-73
2021/05/11 05:12:19;;;;;;;8.50;5.88;;;12.10;99.90;;;;;;5071535;28;20035;-74
2021/05/11 05:14:45;;;;;;;14.98;6.15;;;12.20;99.90;;;;;;5071015;28;20465;-74
2021/05/11 05:17:12;;;;;;;9.43;6.95;;;12.30;99.90;;;;;;5071378;28;20037;-74
2021/05/11 05:19:38;;;;;;;11.45;6.80;;;12.30;99.90;;;;;;5071103;28;20475;-72
2021/05/11 05:22:05;;;;;;;10.55;6.03;;;12.30;99.90;;;;;;5070557;28;20112;-72
2021/05/11 05:24:37;;;;;;;9.55;6.43;;;12.30;99.90;;;;;;5071122;28;20128;-73
2021/05/11 05:27:13;;;;;;;19.73;5.95;;;12.40;99.90;;;;;;5071497;28;20119;-73
2021/05/11 05:29:39;;;;;;;10.43;5.85;;;12.40;99.90;;;;;;5070716;28;20473;-74
2021/05/11 05:32:08;;;;;;;11.63;5.80;;;13.20;99.90;;;;;;5073085;28;20031;-75
2021/05/11 05:34:33;;;;;;;10.82;6.85;;;12.40;99.90;;;;;;5087920;28;20107;-73
2021/05/11 05:36:59;;;;;;;12.65;6.25;;;12.40;99.90;;;;;;5078923;28;20119;-74
2021/05/11 05:39:43;;;;;;;11.55;6.18;;;12.40;99.90;;;;;;5073595;28;20025;-73
2021/05/11 05:42:08;;;;;;;11.80;5.90;;;12.40;99.90;;;;;;5063082;28;20046;-74
2021/05/11 05:44:34;;;;;;;13.60;5.85;;;12.50;99.90;;;;;;5063422;28;20519;-74
2021/05/11 05:47:00;;;;;;;8.45;4.97;;;12.60;99.90;;;;;;5062298;28;20071;-72
2021/05/11 05:49:31;;;;;;;8.48;4.63;;;12.70;99.90;;;;;;5059125;28;20056;-73
2021/05/11 05:52:03;;;;;;;13.57;5.38;;;12.80;99.90;;;;;;5057255;28;20037;-73
2021/05/11 05:54:28;;;;;;;7.28;4.72;;;12.80;99.90;;;;;;5062286;28;20495;-73
2021/05/11 05:56:54;;;;;;;10.02;4.95;;;12.90;99.90;;;;;;5064802;28;20040;-73
2021/05/11 05:59:19;;;;;;;12.98;4.68;;;12.90;99.90;;;;;;5059868;28;20528;-73
2021/05/11 06:01:48;;;;;;;12.20;5.10;;;12.90;99.90;;;;;;5061026;28;20081;-72
2021/05/11 06:04:17;;;;;;;11.65;6.70;;;13.00;99.90;;;;;;5063109;28;20021;-72
2021/05/11 06:06:43;;;;;;;13.55;5.25;;;13.00;99.90;;;;;;5062611;28;20047;-72
2021/05/11 06:09:14;;;;;;;9.40;5.53;;;13.10;99.90;;;;;;5057262;28;20048;-73
2021/05/11 06:19:25;;;;;;;14.00;5.25;;;13.30;99.90;;;;;;5071440;28;20606;-73
2021/05/11 06:21:50;;;;;;;10.32;5.63;;;13.40;99.90;;;;;;5073982;28;20040;-74
2021/05/11 06:24:16;;;;;;;12.00;5.45;;;13.40;99.90;;;;;;5072742;28;20056;-74
2021/05/11 06:26:43;;;;;;;11.85;5.82;;;13.30;99.90;;;;;;5073730;28;20040;-74
2021/05/11 06:29:09;;;;;;;12.13;5.97;;;13.30;99.90;;;;;;5076375;28;20081;-74
2021/05/11 06:31:35;;;;;;;14.05;5.82;;;13.40;99.90;;;;;;5074168;28;20021;-74
2021/05/11 06:34:02;;;;;;;18.45;6.47;;;13.30;99.90;;;;;;5072574;28;20366;-74
2021/05/11 06:36:28;;;;;;;15.75;6.05;;;13.40;99.90;;;;;;5073247;28;20021;-74
2021/05/11 06:38:54;;;;;;;14.50;7.22;;;13.40;99.90;;;;;;5070066;28;20024;-74
2021/05/11 06:41:20;;;;;;;18.15;6.40;;;13.40;99.90;;;;;;5080479;28;20036;-74
2021/05/11 06:43:46;;;;;;;13.80;6.35;;;13.50;99.90;;;;;;5077740;28;20039;-74
2021/05/11 06:54:11;;;;;;;11.43;5.65;;;13.70;99.90;;;;;;5085244;28;20048;-75
2021/05/11 06:56:43;;;;;;;12.50;5.20;;;13.70;99.90;;;;;;5087561;28;20439;-75
2021/05/11 06:59:09;;;;;;;16.05;5.35;;;13.80;99.90;;;;;;5086450;28;20397;-74
2021/05/11 07:01:35;;;;;;;11.98;5.60;;;13.90;99.90;;;;;;5086059;28;20043;-76
2021/05/11 07:04:00;;;;;;;10.90;6.85;;;14.10;99.90;;;;;;5088572;28;20037;-77
2021/05/11 07:06:26;;;;;;;14.88;5.90;;;14.10;99.90;;;;;;5083583;28;20017;-75
2021/05/11 07:08:59;;;;;;;16.80;6.57;;;14.20;99.90;;;;;;5088662;28;20077;-75
2021/05/11 07:11:31;;;;;;;13.63;5.97;;;14.30;99.90;;;;;;5083529;28;20020;-76
2021/05/11 07:13:56;;;;;;;12.23;6.93;;;14.50;99.90;;;;;;5088147;28;20028;-75
2021/05/11 07:16:22;;;;;;;23.70;7.22;;;14.60;99.90;;;;;;5080729;28;20024;-75
2021/05/11 07:18:47;;;;;;;15.70;7.03;;;14.80;99.90;;;;;;5073373;28;20052;-75
2021/05/11 07:21:13;;;;;;;17.67;8.00;;;15.00;99.90;;;;;;5072103;28;20082;-76
2021/05/11 07:23:39;;;;;;;17.48;8.05;;;15.10;99.90;;;;;;5065007;28;20032;-75
2021/05/11 07:31:14;;;;;;;16.67;7.25;;;15.50;99.90;;;;;;5071134;28;20456;-75
2021/05/11 07:33:46;;;;;;;12.88;7.15;;;15.60;99.90;;;;;;5072554;28;20028;-74
2021/05/11 07:36:12;;;;;;;16.42;7.47;;;15.60;99.90;;;;;;5071530;28;20534;-75
2021/05/11 07:38:38;;;;;;;15.38;7.38;;;15.60;99.90;;;;;;5071915;28;20028;-74
2021/05/11 07:41:05;;;;;;;16.60;8.00;;;15.60;99.90;;;;;;5071716;28;20085;-74
2021/05/11 07:43:33;;;;;;;13.07;7.80;;;15.60;99.90;;;;;;5071042;28;20108;-74
2021/05/11 08:01:55;;;;;;;11.75;6.85;;;15.90;99.90;;;;;;5071803;28;20036;-75
2021/05/11 08:04:52;;;;;;;16.13;8.20;;;16.20;99.90;;;;;;5071988;28;20388;-75
2021/05/11 08:10:29;;;;;;;13.30;7.65;;;16.30;99.90;;;;;;5071856;28;20115;-76
2021/05/11 08:15:40;;;;;;;11.65;8.00;;;16.40;99.90;;;;;;5060464;28;20602;-75
2021/05/11 08:18:25;;;;;;;16.45;8.25;;;16.40;99.90;;;;;;5071638;28;20070;-76
2021/05/11 08:28:26;;;;;;;12.73;8.95;;;16.60;99.90;;;;;;5071744;28;20606;-76
2021/05/11 08:30:52;;;;;;;15.65;8.52;;;16.60;99.90;;;;;;5071175;28;20134;-74
2021/05/11 08:33:18;;;;;;;17.98;9.38;;;16.60;99.90;;;;;;5071857;28;20111;-74
2021/05/11 08:35:44;;;;;;;14.75;9.02;;;16.60;99.90;;;;;;5072146;28;20021;-75
2021/05/11 08:38:09;;;;;;;18.42;9.43;;;16.70;99.90;;;;;;5071067;28;20490;-75
2021/05/11 08:40:35;;;;;;;11.43;9.43;;;16.60;99.90;;;;;;5071698;28;20020;-75
2021/05/11 08:43:05;;;;;;;16.83;10.43;;;16.80;99.90;;;;;;5071619;28;20032;-75
2021/05/11 08:45:32;;;;;;;15.52;9.88;;;16.80;99.90;;;;;;5070833;28;20043;-75
2021/05/11 08:47:58;;;;;;;20.58;9.15;;;16.90;99.90;;;;;;5071862;28;20035;-76
2021/05/11 08:50:38;;;;;;;16.73;8.63;;;17.00;99.90;;;;;;5071386;28;20024;-75
2021/05/11 09:07:58;;;;;;;13.45;9.00;;;18.20;99.90;;;;;;5054860;28;20106;-75
2021/05/11 09:24:54;;;;;;;14.15;8.32;;;18.20;99.90;;;;;;5038723;28;20103;-76
2021/05/11 09:54:14;;;;;;;16.10;9.00;;;18.90;99.90;;;;;;5075367;28;20051;-77
2021/05/11 09:55:13;;;;;;;13.15;8.23;;;19.00;99.90;;;;;;5071952;28;20025;-76
2021/05/11 09:57:53;;;;;;;14.95;9.70;;;19.00;99.90;;;;;;5083001;28;20029;-76
2021/05/11 10:11:43;;;;;;;11.90;8.52;;;18.80;99.90;;;;;;5076653;28;20055;-76
2021/05/11 10:27:01;;;;;;;14.93;9.68;;;18.70;99.90;;;;;;5074873;28;20036;-77
2021/05/11 10:31:31;;;;;;;15.73;9.20;;;19.00;99.90;;;;;;5080352;28;20031;-77
2021/05/11 10:37:27;;;;;;;13.55;9.80;;;19.20;99.90;;;;;;5073872;28;20051;-75
2021/05/11 10:43:45;;;;;;;;;;;19.50;99.90;;;;;;5072319;28;20078;-76
2021/05/11 10:48:35;;;;;;;13.07;7.85;;;19.50;99.90;;;;;;5074020;28;20036;-76
2021/05/11 10:51:16;;;;;;;15.55;7.97;;;19.60;99.90;;;;;;5074602;28;20124;-75
2021/05/11 10:54:23;;;;;;;12.73;8.07;;;19.50;99.90;;;;;;5074721;28;20119;-76
2021/05/11 10:56:45;;;;;;;12.88;8.50;;;19.60;99.90;;;;;;5062718;28;20112;-76
2021/05/11 10:59:18;;;;;;;16.20;9.73;;;19.60;99.90;;;;;;5091363;28;20028;-76
2021/05/11 11:01:46;;;;;;;14.23;7.78;;;19.70;99.90;;;;;;5075201;28;20017;-75
2021/05/11 11:04:23;;;;;;;16.52;9.48;;;19.80;99.90;;;;;;5069068;28;20036;-76
2021/05/11 11:07:01;;;;;;;11.50;7.90;;;19.70;99.90;;;;;;5080290;28;20111;-76
2021/05/11 11:09:34;;;;;;;18.55;8.00;;;19.70;99.90;;;;;;5091869;28;20047;-77
2021/05/11 11:12:02;;;;;;;9.80;8.00;;;19.60;99.90;;;;;;5057419;28;20041;-75
2021/05/11 11:14:44;;;;;;;12.75;8.63;;;19.50;99.90;;;;;;5056688;28;20021;-76
2021/05/11 11:17:12;;;;;;;14.55;8.70;;;19.50;99.90;;;;;;5054648;28;20049;-76
2021/05/11 11:19:38;;;;;;;15.70;8.40;;;19.50;99.90;;;;;;5053179;28;20041;-76
2021/05/11 11:24:56;;;;;;;12.20;7.70;;;19.70;99.90;;;;;;5058070;28;20052;-77
2021/05/11 11:27:26;;;;;;;12.43;7.97;;;19.90;99.90;;;;;;5066477;28;20033;-77
2021/05/11 11:30:05;;;;;;;10.00;8.20;;;20.10;99.90;;;;;;5057904;28;20477;-76
2021/05/11 11:32:31;;;;;;;12.82;8.30;;;20.30;99.90;;;;;;5059405;28;20032;-76
2021/05/11 11:35:01;;;;;;;13.63;8.73;;;20.40;99.90;;;;;;5056777;28;20021;-76
2021/05/11 11:37:29;;;;;;;11.30;7.63;;;20.60;99.90;;;;;;5072784;28;20430;-76
2021/05/11 11:39:56;;;;;;;9.70;8.38;;;20.70;99.90;;;;;;5072915;28;20275;-75
2021/05/11 11:42:42;;;;;;;12.95;8.38;;;20.70;99.90;;;;;;5072297;28;20369;-78
2021/05/11 11:45:21;;;;;;;11.00;7.07;;;20.70;99.90;;;;;;5061905;28;20512;-77
2021/05/11 11:48:00;;;;;;;10.35;7.22;;;20.70;99.90;;;;;;5072503;28;20035;-75
2021/05/11 11:50:26;;;;;;;9.45;6.50;;;20.60;99.90;;;;;;5072508;28;20029;-76
2021/05/11 11:53:03;;;;;;;11.07;6.63;;;20.70;99.90;;;;;;5072296;28;20025;-76
2021/05/11 11:57:55;;;;;;;14.80;6.43;;;20.50;99.90;;;;;;5076732;28;20122;-76
2021/05/11 12:00:25;;;;;;;9.15;6.03;;;20.40;99.90;;;;;;5074345;28;20373;-76
2021/05/11 12:02:51;;;;;;;10.77;6.45;;;20.40;99.90;;;;;;5072883;28;20070;-76
2021/05/11 12:05:17;;;;;;;9.13;6.60;;;20.30;99.90;;;;;;5069072;28;20082;-76
2021/05/11 12:08:03;;;;;;;9.93;5.75;;;20.30;99.90;;;;;;5071280;28;20028;-77
2021/05/11 12:10:30;;;;;;;11.98;5.38;;;20.20;99.90;;;;;;5071740;28;20024;-76
2021/05/11 12:12:57;;;;;;;9.43;4.95;;;20.10;99.90;;;;;;5074152;28;20349;-76
2021/05/11 12:15:24;;;;;;;11.07;5.80;;;20.00;99.90;;;;;;5077189;28;20085;-74
2021/05/11 12:18:16;;;;;;;12.32;7.35;;;20.00;99.90;;;;;;5070082;28;20071;-81
2021/05/11 12:20:42;;;;;;;11.15;6.90;;;20.00;99.90;;;;;;5064269;28;20040;-76
2021/05/11 12:23:16;;;;;;;17.95;7.43;;;19.90;99.90;;;;;;5061628;28;20024;-75
2021/05/11 12:25:43;;;;;;;8.93;5.90;;;19.90;99.90;;;;;;5064902;28;20091;-73
2021/05/11 12:28:10;;;;;;;12.00;5.90;;;19.90;99.90;;;;;;5072420;28;20029;-77
2021/05/11 12:30:42;;;;;;;10.40;6.18;;;19.90;99.90;;;;;;5071690;28;20379;-78
2021/05/11 12:33:13;;;;;;;9.07;5.70;;;19.90;99.90;;;;;;5071226;28;20108;-77
2021/05/11 12:35:41;;;;;;;7.95;5.03;;;19.90;99.90;;;;;;5072494;28;20051;-77
2021/05/11 12:38:24;;;;;;;9.48;5.75;;;19.80;99.90;;;;;;5072394;28;20041;-78
2021/05/11 12:41:14;;;;;;;10.00;5.90;;;19.80;99.90;;;;;;5073940;28;20464;-78
2021/05/11 12:43:50;;;;;;;13.38;5.90;;;19.80;99.90;;;;;;5071615;28;20488;-78
2021/05/11 12:46:25;;;;;;;9.40;5.50;;;19.60;99.90;;;;;;5085905;28;20059;-78
2021/05/11 12:48:55;;;;;;;13.68;5.90;;;19.50;99.90;;;;;;5073610;28;20036;-77
2021/05/11 12:51:39;;;;;;;14.93;6.85;;;19.40;99.90;;;;;;5071170;28;20487;-79
2021/05/11 12:54:30;;;;;;;11.05;5.72;;;19.30;99.90;;;;;;5072634;28;20407;-78
2021/05/11 13:16:23;;;;;;;15.07;6.00;;;19.60;99.90;;;;;;5071843;28;20052;-77
2021/05/11 13:21:40;;;;;;;6.78;4.93;;;19.50;99.90;;;;;;5071700;28;20463;-77
2021/05/11 13:27:04;;;;;;;10.32;5.65;;;19.60;99.90;;;;;;5070838;28;20035;-78
2021/05/11 13:32:37;;;;;;;10.50;6.45;;;19.60;99.90;;;;;;5071210;28;20089;-77
2021/05/11 13:35:03;;;;;;;11.18;6.57;;;19.10;99.90;;;;;;5070701;28;20027;-79
2021/05/11 13:37:28;;;;;;;8.10;5.50;;;19.60;99.90;;;;;;5070817;28;20032;-78
2021/05/11 13:39:55;;;;;;;10.02;5.68;;;19.70;99.90;;;;;;5071633;28;20035;-78
2021/05/11 13:42:22;;;;;;;9.43;6.60;;;19.60;99.90;;;;;;5070309;28;20052;-78
2021/05/11 13:44:49;;;;;;;11.73;6.18;;;19.60;99.90;;;;;;5071444;28;20019;-78
2021/05/11 13:47:14;;;;;;;9.50;6.55;;;19.60;99.90;;;;;;5070777;28;20511;-78
2021/05/11 13:49:40;;;;;;;8.90;6.38;;;19.60;99.90;;;;;;5072798;28;20025;-79
2021/05/11 13:52:06;;;;;;;14.10;6.72;;;19.50;99.90;;;;;;5072089;28;20070;-77
2021/05/11 13:54:31;;;;;;;15.73;6.40;;;19.40;99.90;;;;;;5070446;28;20028;-77
2021/05/11 14:05:04;;;;;;;14.57;7.15;;;19.40;99.90;;;;;;5075138;28;20119;-77
2021/05/11 14:07:31;;;;;;;17.00;8.07;;;19.40;99.90;;;;;;5072264;28;20087;-77
2021/05/11 14:09:57;;;;;;;11.80;7.30;;;19.40;99.90;;;;;;5071274;28;20102;-79
2021/05/11 14:12:23;;;;;;;11.15;7.10;;;19.40;99.90;;;;;;5071193;28;20460;-78
2021/05/11 14:14:48;;;;;;;12.93;7.03;;;19.40;99.90;;;;;;5070817;28;20029;-77
2021/05/11 14:17:14;;;;;;;11.93;7.50;;;19.30;99.90;;;;;;5072740;28;20098;-76
2021/05/11 14:19:39;;;;;;;9.88;5.60;;;19.20;99.90;;;;;;5074609;28;20127;-77
2021/05/11 14:22:05;;;;;;;12.15;7.70;;;19.30;99.90;;;;;;5074769;28;20081;-77
2021/05/11 14:24:30;;;;;;;12.95;7.25;;;19.20;99.90;;;;;;5073917;28;20453;-78
2021/05/11 14:26:56;;;;;;;11.18;6.65;;;19.20;99.90;;;;;;5074467;28;20103;-77
2021/05/11 14:29:22;;;;;;;9.27;6.70;;;19.20;99.90;;;;;;5073733;28;20028;-78
2021/05/11 14:31:47;;;;;;;14.38;7.88;;;19.30;99.90;;;;;;5074637;28;20028;-77
2021/05/11 14:34:14;;;;;;;18.45;7.50;;;19.30;99.90;;;;;;5074321;28;20033;-77
2021/05/11 14:36:40;;;;;;;15.30;7.68;;;19.30;99.90;;;;;;5073867;28;20032;-77
2021/05/11 14:39:06;;;;;;;11.95;7.85;;;19.20;99.90;;;;;;5074099;28;20461;-77
2021/05/11 14:41:31;;;;;;;12.00;7.57;;;19.10;99.90;;;;;;5073881;28;20035;-77
2021/05/11 14:43:57;;;;;;;12.15;6.93;;;18.40;99.90;;;;;;5073582;28;20020;-76
2021/05/11 14:46:23;;;;;;;12.18;6.72;;;18.70;99.90;;;;;;5074022;28;20012;-77
2021/05/11 14:48:50;;;;;;;13.07;7.22;;;18.60;99.90;;;;;;5074162;28;20021;-77
2021/05/11 14:51:19;;;;;;;10.43;6.60;;;18.50;99.90;;;;;;5072829;28;20055;-77
2021/05/11 14:53:49;;;;;;;14.02;7.03;;;18.40;99.90;;;;;;5073975;28;20468;-76
2021/05/11 14:56:15;;;;;;;10.80;6.83;;;18.40;99.90;;;;;;5074317;28;20032;-78
2021/05/11 14:58:41;;;;;;;10.82;6.97;;;18.30;99.90;;;;;;5072965;28;20047;-77
2021/05/11 15:01:08;;;;;;;10.20;6.03;;;18.40;99.90;;;;;;5073983;28;20371;-76
2021/05/11 15:03:34;;;;;;;13.32;7.25;;;18.40;99.90;;;;;;5073443;28;20064;-77
2021/05/11 15:06:00;;;;;;;12.73;7.53;;;18.40;99.90;;;;;;5073457;28;20028;-77
2021/05/11 15:08:26;;;;;;;9.95;6.63;;;18.40;99.90;;;;;;5073353;28;20024;-77
2021/05/11 15:10:52;;;;;;;15.90;8.52;;;18.40;99.90;;;;;;5073662;28;20067;-77
2021/05/11 15:13:18;;;;;;;13.50;6.68;;;18.30;99.90;;;;;;5072384;28;20131;-78
2021/05/11 15:15:49;;;;;;;13.25;6.20;;;18.30;99.90;;;;;;5073783;28;20064;-77
2021/05/11 15:18:15;;;;;;;11.07;6.15;;;18.40;99.90;;;;;;5073255;28;20041;-76
2021/05/11 15:20:41;;;;;;;10.43;6.22;;;18.40;99.90;;;;;;5072815;28;20041;-77
2021/05/11 15:23:07;;;;;;;10.65;6.28;;;18.40;99.90;;;;;;5074572;28;20025;-78
2021/05/11 15:25:33;;;;;;;11.55;7.25;;;18.40;99.90;;;;;;5075578;28;20023;-77
2021/05/11 15:28:00;;;;;;;11.73;6.00;;;18.40;99.90;;;;;;5071883;28;20349;-77
2021/05/11 15:30:28;;;;;;;11.73;6.95;;;18.50;99.90;;;;;;5072755;28;20539;-77
2021/05/11 15:32:55;;;;;;;15.15;7.93;;;18.50;99.90;;;;;;5073039;28;20028;-76
2021/05/11 15:35:23;;;;;;;10.43;6.35;;;18.40;99.90;;;;;;5072704;28;20107;-76
2021/05/11 15:37:56;;;;;;;9.50;6.75;;;18.40;99.90;;;;;;5072913;28;20093;-77
2021/05/11 15:40:24;;;;;;;7.85;6.50;;;18.50;99.90;;;;;;5071794;28;20021;-77
2021/05/11 15:42:51;;;;;;;10.90;7.28;;;18.50;99.90;;;;;;5072664;28;20046;-76
2021/05/11 15:45:17;;;;;;;15.25;7.82;;;18.50;99.90;;;;;;5072472;28;20036;-78
2021/05/11 15:47:54;;;;;;;10.90;6.93;;;18.40;99.90;;;;;;5071771;28;20056;-77
2021/05/11 15:50:28;;;;;;;10.73;7.28;;;18.30;99.90;;;;;;5072456;28;20119;-77
2021/05/11 15:52:55;;;;;;;14.32;7.43;;;18.40;99.90;;;;;;5087294;28;20081;-77
2021/05/11 15:55:22;;;;;;;13.93;7.95;;;18.30;99.90;;;;;;5074121;28;20029;-76
2021/05/11 15:57:50;;;;;;;3.95;2.10;;;18.30;99.90;;;;;;5073477;28;20033;-77
2021/05/11 16:00:16;;;;;;;3.85;2.38;;;18.00;99.90;;;;;;5073664;28;20020;-77
2021/05/11 16:02:42;;;;;;;5.18;3.95;;;17.60;99.90;;;;;;5073260;28;20028;-77
2021/05/11 16:05:08;;;;;;;5.55;3.55;;;17.10;99.90;;;;;;5073603;28;20372;-77
2021/05/11 16:07:35;;;;;;;9.65;3.85;;;16.60;99.90;;;;;;5072077;28;20024;-75
2021/05/11 16:10:03;;;;;;;9.07;3.80;;;16.10;99.90;;;;;;5073121;28;20077;-75
2021/05/11 16:12:28;;;;;;;5.90;2.92;;;15.60;99.90;;;;;;5074560;28;20544;-75
2021/05/11 16:14:54;;;;;;;2.85;1.60;;;15.20;99.90;;;;;;5072567;28;20119;-75
2021/05/11 16:17:20;;;;;;;2.60;1.92;;;14.80;99.90;;;;;;5071893;28;20150;-75
2021/05/11 16:19:48;;;;;;;3.40;1.80;;;14.50;99.90;;;;;;5071910;28;20048;-74
2021/05/11 16:22:14;;;;;;;13.43;3.63;;;14.30;99.90;;;;;;5071201;28;20036;-73
2021/05/11 16:24:40;;;;;;;3.90;2.10;;;14.10;99.90;;;;;;5054128;28;20033;-73
2021/05/11 16:27:06;;;;;;;4.10;2.03;;;13.90;99.90;;;;;;5071792;28;20075;-74
2021/05/11 16:29:31;;;;;;;7.93;2.00;;;13.70;99.90;;;;;;5071055;28;20027;-73
2021/05/11 16:31:58;;;;;;;3.40;1.60;;;13.50;99.90;;;;;;5072039;28;20031;-74
2021/05/11 16:34:24;;;;;;;2.95;1.40;;;13.70;99.90;;;;;;5071700;28;20063;-74
2021/05/11 16:36:50;;;;;;;2.50;2.10;;;13.40;99.90;;;;;;5071223;28;20056;-74
2021/05/11 16:39:16;;;;;;;4.55;2.35;;;13.40;99.90;;;;;;5071096;28;20495;-74
2021/05/11 16:41:42;;;;;;;4.40;2.35;;;13.30;99.90;;;;;;5071566;28;20021;-73
2021/05/11 16:44:08;;;;;;;4.20;2.38;;;13.30;99.90;;;;;;5070959;28;20020;-75
2021/05/11 16:46:34;;;;;;;3.25;2.08;;;13.20;99.90;;;;;;5071717;28;20069;-74
2021/05/11 16:49:01;;;;;;;4.30;2.25;;;13.10;99.90;;;;;;5072039;28;20492;-75